sensor_id;sensor_type;location;lat;lon;timestamp;temperature;humidity
64209;DHT22;50527;52.414;13.226;2023-10-08T00:02:11;12.80;99.90
64209;DHT22;50527;52.414;13.226;2023-10-08T00:04:39;12.80;99.90
64209;DHT22;50527;52.414;13.226;2023-10-08T00:07:05;12.70;99.90
64209;DHT22;50527;52.414;13.226;2023-10-08T00:09:34;12.70;99.90
64209;DHT22;50527;52.414;13.226;2023-10-08T00:12:03;12.70;99.90
64209;DHT22;50527;52.414;13.226;2023-10-08T00:14:28;12.70;99.90
64209;DHT22;50527;52.414;13.226;2023-10-08T00:16:54;12.70;99.90
64209;DHT22;50527;52.414;13.226;2023-10-08T00:19:19;12.70;99.90
64209;DHT22;50527;52.414;13.226;2023-10-08T00:21:46;12.70;99.90
64209;DHT22;50527;52.414;13.226;2023-10-08T00:24:14;12.70;99.90
64209;DHT22;50527;52.414;13.226;2023-10-08T00:26:40;12.70;99.90
64209;DHT22;50527;52.414;13.226;2023-10-08T00:29:07;12.70;99.90
64209;DHT22;50527;52.414;13.226;2023-10-08T00:31:44;12.60;99.90
64209;DHT22;50527;52.414;13.226;2023-10-08T00:34:11;12.60;99.90
64209;DHT22;50527;52.414;13.226;2023-10-08T00:36:40;12.60;99.90
64209;DHT22;50527;52.414;13.226;2023-10-08T00:39:07;12.60;99.90
64209;DHT22;50527;52.414;13.226;2023-10-08T00:41:38;12.60;99.90
64209;DHT22;50527;52.414;13.226;2023-10-08T00:44:07;12.60;99.90
64209;DHT22;50527;52.414;13.226;2023-10-08T00:46:33;12.60;99.90
64209;DHT22;50527;52.414;13.226;2023-10-08T00:49:08;12.60;99.90
64209;DHT22;50527;52.414;13.226;2023-10-08T00:51:54;12.60;99.90
64209;DHT22;50527;52.414;13.226;2023-10-08T00:54:28;12.60;99.90
64209;DHT22;50527;52.414;13.226;2023-10-08T00:56:54;12.60;99.90
64209;DHT22;50527;52.414;13.226;2023-10-08T00:59:26;12.60;99.90
64209;DHT22;50527;52.414;13.226;2023-10-08T01:01:52;12.60;99.90
64209;DHT22;50527;52.414;13.226;2023-10-08T01:04:32;12.60;99.90
64209;DHT22;50527;52.414;13.226;2023-10-08T01:10:16;12.50;99.90
64209;DHT22;50527;52.414;13.226;2023-10-08T01:12:48;12.50;99.90
64209;DHT22;50527;52.414;13.226;2023-10-08T01:15:26;12.50;99.90
64209;DHT22;50527;52.414;13.226;2023-10-08T01:17:56;12.50;99.90
64209;DHT22;50527;52.414;13.226;2023-10-08T01:20:30;12.50;99.90
64209;DHT22;50527;52.414;13.226;2023-10-08T01:22:58;12.50;99.90
64209;DHT22;50527;52.414;13.226;2023-10-08T01:25:25;12.50;99.90
64209;DHT22;50527;52.414;13.226;2023-10-08T01:27:58;12.50;99.90
64209;DHT22;50527;52.414;13.226;2023-10-08T01:30:27;12.50;99.90
64209;DHT22;50527;52.414;13.226;2023-10-08T01:32:59;12.50;99.90
64209;DHT22;50527;52.414;13.226;2023-10-08T01:35:27;12.40;99.90
64209;DHT22;50527;52.414;13.226;2023-10-08T01:37:53;12.50;99.90
64209;DHT22;50527;52.414;13.226;2023-10-08T01:40:21;12.50;99.90
64209;DHT22;50527;52.414;13.226;2023-10-08T01:42:50;12.60;99.90
64209;DHT22;50527;52.414;13.226;2023-10-08T01:45:17;12.50;99.90
64209;DHT22;50527;52.414;13.226;2023-10-08T01:47:43;12.40;99.90
64209;DHT22;50527;52.414;13.226;2023-10-08T01:50:09;12.40;99.90
64209;DHT22;50527;52.414;13.226;2023-10-08T01:52:47;12.40;99.90
64209;DHT22;50527;52.414;13.226;2023-10-08T01:55:12;12.40;99.90
64209;DHT22;50527;52.414;13.226;2023-10-08T01:57:43;12.50;99.90
64209;DHT22;50527;52.414;13.226;2023-10-08T02:00:09;12.40;99.90
64209;DHT22;50527;52.414;13.226;2023-10-08T02:02:35;12.50;99.90
64209;DHT22;50527;52.414;13.226;2023-10-08T02:05:01;12.50;99.90
64209;DHT22;50527;52.414;13.226;2023-10-08T02:07:26;12.50;99.90
64209;DHT22;50527;52.414;13.226;2023-10-08T02:09:52;12.50;99.90
64209;DHT22;50527;52.414;13.226;2023-10-08T02:12:18;12.40;99.90
64209;DHT22;50527;52.414;13.226;2023-10-08T02:14:43;12.40;99.90
64209;DHT22;50527;52.414;13.226;2023-10-08T02:17:09;12.40;99.90
64209;DHT22;50527;52.414;13.226;2023-10-08T02:19:35;12.40;99.90
64209;DHT22;50527;52.414;13.226;2023-10-08T02:22:02;12.40;99.90
64209;DHT22;50527;52.414;13.226;2023-10-08T02:24:31;12.40;99.90
64209;DHT22;50527;52.414;13.226;2023-10-08T02:26:56;12.40;99.90
64209;DHT22;50527;52.414;13.226;2023-10-08T02:29:26;12.40;99.90
64209;DHT22;50527;52.414;13.226;2023-10-08T02:31:51;12.30;99.90
64209;DHT22;50527;52.414;13.226;2023-10-08T02:34:19;12.40;99.90
64209;DHT22;50527;52.414;13.226;2023-10-08T02:36:45;12.40;99.90
64209;DHT22;50527;52.414;13.226;2023-10-08T02:39:13;12.30;99.90
64209;DHT22;50527;52.414;13.226;2023-10-08T02:41:43;12.30;99.90
64209;DHT22;50527;52.414;13.226;2023-10-08T02:44:12;12.40;99.90
64209;DHT22;50527;52.414;13.226;2023-10-08T02:46:46;12.40;99.90
64209;DHT22;50527;52.414;13.226;2023-10-08T02:49:15;12.30;99.90
64209;DHT22;50527;52.414;13.226;2023-10-08T02:51:50;12.30;99.90
64209;DHT22;50527;52.414;13.226;2023-10-08T02:54:21;12.30;99.90
64209;DHT22;50527;52.414;13.226;2023-10-08T02:56:50;12.30;99.90
64209;DHT22;50527;52.414;13.226;2023-10-08T02:59:29;12.40;99.90
64209;DHT22;50527;52.414;13.226;2023-10-08T03:02:05;12.40;99.90
64209;DHT22;50527;52.414;13.226;2023-10-08T03:04:40;12.40;99.90
64209;DHT22;50527;52.414;13.226;2023-10-08T03:07:05;12.30;99.90
64209;DHT22;50527;52.414;13.226;2023-10-08T03:09:36;12.40;99.90
64209;DHT22;50527;52.414;13.226;2023-10-08T03:12:07;12.40;99.90
64209;DHT22;50527;52.414;13.226;2023-10-08T03:14:35;12.40;99.90
64209;DHT22;50527;52.414;13.226;2023-10-08T03:17:13;12.40;99.90
64209;DHT22;50527;52.414;13.226;2023-10-08T03:19:45;12.30;99.90
64209;DHT22;50527;52.414;13.226;2023-10-08T03:22:11;12.40;99.90
64209;DHT22;50527;52.414;13.226;2023-10-08T03:24:37;12.40;99.90
64209;DHT22;50527;52.414;13.226;2023-10-08T03:27:05;12.40;99.90
64209;DHT22;50527;52.414;13.226;2023-10-08T03:29:51;12.40;99.90
64209;DHT22;50527;52.414;13.226;2023-10-08T03:32:19;12.40;99.90
64209;DHT22;50527;52.414;13.226;2023-10-08T03:34:51;12.40;99.90
64209;DHT22;50527;52.414;13.226;2023-10-08T03:37:21;12.30;99.90
64209;DHT22;50527;52.414;13.226;2023-10-08T03:39:54;12.40;99.90
64209;DHT22;50527;52.414;13.226;2023-10-08T03:42:26;12.40;99.90
64209;DHT22;50527;52.414;13.226;2023-10-08T03:44:59;12.40;99.90
64209;DHT22;50527;52.414;13.226;2023-10-08T03:47:35;12.40;99.90
64209;DHT22;50527;52.414;13.226;2023-10-08T03:50:06;12.40;99.90
64209;DHT22;50527;52.414;13.226;2023-10-08T03:52:33;12.40;99.90
64209;DHT22;50527;52.414;13.226;2023-10-08T03:55:03;12.30;99.90
64209;DHT22;50527;52.414;13.226;2023-10-08T03:57:43;12.30;99.90
64209;DHT22;50527;52.414;13.226;2023-10-08T04:00:11;12.30;99.90
64209;DHT22;50527;52.414;13.226;2023-10-08T04:02:43;12.30;99.90
64209;DHT22;50527;52.414;13.226;2023-10-08T04:05:20;12.30;99.90
64209;DHT22;50527;52.414;13.226;2023-10-08T04:07:47;12.30;99.90
64209;DHT22;50527;52.414;13.226;2023-10-08T04:10:35;12.30;99.90
64209;DHT22;50527;52.414;13.226;2023-10-08T04:13:04;12.30;99.90
64209;DHT22;50527;52.414;13.226;2023-10-08T04:15:34;12.20;99.90
64209;DHT22;50527;52.414;13.226;2023-10-08T04:18:00;12.20;99.90
64209;DHT22;50527;52.414;13.226;2023-10-08T04:20:28;12.30;99.90
64209;DHT22;50527;52.414;13.226;2023-10-08T04:23:03;12.30;99.90
64209;DHT22;50527;52.414;13.226;2023-10-08T04:25:30;12.30;99.90
64209;DHT22;50527;52.414;13.226;2023-10-08T04:27:56;12.30;99.90
64209;DHT22;50527;52.414;13.226;2023-10-08T04:30:34;12.30;99.90
64209;DHT22;50527;52.414;13.226;2023-10-08T04:33:01;12.20;99.90
64209;DHT22;50527;52.414;13.226;2023-10-08T04:35:37;12.20;99.90
64209;DHT22;50527;52.414;13.226;2023-10-08T04:38:16;12.30;99.90
64209;DHT22;50527;52.414;13.226;2023-10-08T04:40:45;12.30;99.90
64209;DHT22;50527;52.414;13.226;2023-10-08T04:43:24;12.30;99.90
64209;DHT22;50527;52.414;13.226;2023-10-08T04:46:00;12.20;99.90
64209;DHT22;50527;52.414;13.226;2023-10-08T04:48:45;12.20;99.90
64209;DHT22;50527;52.414;13.226;2023-10-08T04:51:11;12.20;99.90
64209;DHT22;50527;52.414;13.226;2023-10-08T04:53:38;12.20;99.90
64209;DHT22;50527;52.414;13.226;2023-10-08T04:56:08;12.20;99.90
64209;DHT22;50527;52.414;13.226;2023-10-08T04:58:43;12.30;99.90
64209;DHT22;50527;52.414;13.226;2023-10-08T05:01:16;12.20;99.90
64209;DHT22;50527;52.414;13.226;2023-10-08T05:04:04;12.30;99.90
64209;DHT22;50527;52.414;13.226;2023-10-08T05:06:31;12.20;99.90
64209;DHT22;50527;52.414;13.226;2023-10-08T05:09:12;12.20;99.90
64209;DHT22;50527;52.414;13.226;2023-10-08T05:11:44;12.20;99.90
64209;DHT22;50527;52.414;13.226;2023-10-08T05:14:22;12.20;99.90
64209;DHT22;50527;52.414;13.226;2023-10-08T05:17:01;12.10;99.90
64209;DHT22;50527;52.414;13.226;2023-10-08T05:19:48;12.10;99.90
64209;DHT22;50527;52.414;13.226;2023-10-08T05:22:37;12.10;99.90
64209;DHT22;50527;52.414;13.226;2023-10-08T05:25:02;12.10;99.90
64209;DHT22;50527;52.414;13.226;2023-10-08T05:27:44;12.10;99.90
64209;DHT22;50527;52.414;13.226;2023-10-08T05:30:16;12.20;99.90
64209;DHT22;50527;52.414;13.226;2023-10-08T05:32:54;12.10;99.90
64209;DHT22;50527;52.414;13.226;2023-10-08T05:35:32;12.10;99.90
64209;DHT22;50527;52.414;13.226;2023-10-08T05:38:11;12.10;99.90
64209;DHT22;50527;52.414;13.226;2023-10-08T05:40:59;12.10;99.90
64209;DHT22;50527;52.414;13.226;2023-10-08T05:43:27;12.10;99.90
64209;DHT22;50527;52.414;13.226;2023-10-08T05:46:09;12.00;99.90
64209;DHT22;50527;52.414;13.226;2023-10-08T05:48:51;12.10;99.90
64209;DHT22;50527;52.414;13.226;2023-10-08T05:51:41;12.10;99.90
64209;DHT22;50527;52.414;13.226;2023-10-08T05:54:14;12.10;99.90
64209;DHT22;50527;52.414;13.226;2023-10-08T05:56:53;12.10;99.90
64209;DHT22;50527;52.414;13.226;2023-10-08T05:59:38;12.10;99.90
64209;DHT22;50527;52.414;13.226;2023-10-08T06:02:22;12.20;99.90
64209;DHT22;50527;52.414;13.226;2023-10-08T06:05:13;12.20;99.90
64209;DHT22;50527;52.414;13.226;2023-10-08T06:07:50;12.20;99.90
64209;DHT22;50527;52.414;13.226;2023-10-08T06:10:16;12.30;99.90
64209;DHT22;50527;52.414;13.226;2023-10-08T06:13:03;12.30;99.90
64209;DHT22;50527;52.414;13.226;2023-10-08T06:15:40;12.40;99.90
64209;DHT22;50527;52.414;13.226;2023-10-08T06:18:29;12.40;99.90
64209;DHT22;50527;52.414;13.226;2023-10-08T06:21:02;12.40;99.90
64209;DHT22;50527;52.414;13.226;2023-10-08T06:23:35;12.40;99.90
64209;DHT22;50527;52.414;13.226;2023-10-08T06:26:02;12.40;99.90
64209;DHT22;50527;52.414;13.226;2023-10-08T06:28:31;12.40;99.90
64209;DHT22;50527;52.414;13.226;2023-10-08T06:31:01;12.50;99.90
64209;DHT22;50527;52.414;13.226;2023-10-08T06:33:27;12.70;99.90
64209;DHT22;50527;52.414;13.226;2023-10-08T06:36:03;12.70;99.90
64209;DHT22;50527;52.414;13.226;2023-10-08T06:38:43;12.70;99.90
64209;DHT22;50527;52.414;13.226;2023-10-08T06:41:11;12.80;99.90
64209;DHT22;50527;52.414;13.226;2023-10-08T06:43:40;12.70;99.90
64209;DHT22;50527;52.414;13.226;2023-10-08T06:46:12;12.70;99.90
64209;DHT22;50527;52.414;13.226;2023-10-08T06:48:38;12.70;99.90
64209;DHT22;50527;52.414;13.226;2023-10-08T06:51:10;12.70;99.90
64209;DHT22;50527;52.414;13.226;2023-10-08T06:53:43;12.70;99.90
64209;DHT22;50527;52.414;13.226;2023-10-08T06:56:10;12.80;99.90
64209;DHT22;50527;52.414;13.226;2023-10-08T06:58:38;12.90;99.90
64209;DHT22;50527;52.414;13.226;2023-10-08T07:01:04;13.00;99.90
64209;DHT22;50527;52.414;13.226;2023-10-08T07:03:31;12.90;99.90
64209;DHT22;50527;52.414;13.226;2023-10-08T07:05:57;13.00;99.90
64209;DHT22;50527;52.414;13.226;2023-10-08T07:08:32;12.90;99.90
64209;DHT22;50527;52.414;13.226;2023-10-08T07:11:00;12.90;99.90
64209;DHT22;50527;52.414;13.226;2023-10-08T07:13:27;12.90;99.90
64209;DHT22;50527;52.414;13.226;2023-10-08T07:15:55;12.90;99.90
64209;DHT22;50527;52.414;13.226;2023-10-08T07:18:21;13.00;99.90
64209;DHT22;50527;52.414;13.226;2023-10-08T07:20:55;12.90;99.90
64209;DHT22;50527;52.414;13.226;2023-10-08T07:23:21;12.90;99.90
64209;DHT22;50527;52.414;13.226;2023-10-08T07:26:01;12.90;99.90
64209;DHT22;50527;52.414;13.226;2023-10-08T07:28:41;12.90;98.30
64209;DHT22;50527;52.414;13.226;2023-10-08T07:31:17;12.90;99.60
64209;DHT22;50527;52.414;13.226;2023-10-08T07:33:43;12.90;99.60
64209;DHT22;50527;52.414;13.226;2023-10-08T07:36:12;12.90;98.50
64209;DHT22;50527;52.414;13.226;2023-10-08T07:38:42;13.00;97.00
64209;DHT22;50527;52.414;13.226;2023-10-08T07:41:09;13.00;96.60
64209;DHT22;50527;52.414;13.226;2023-10-08T07:43:40;13.00;98.00
64209;DHT22;50527;52.414;13.226;2023-10-08T07:46:07;12.90;98.30
64209;DHT22;50527;52.414;13.226;2023-10-08T07:48:34;12.90;98.60
64209;DHT22;50527;52.414;13.226;2023-10-08T07:51:00;12.80;98.70
64209;DHT22;50527;52.414;13.226;2023-10-08T07:53:27;12.80;98.30
64209;DHT22;50527;52.414;13.226;2023-10-08T07:56:04;12.90;98.20
64209;DHT22;50527;52.414;13.226;2023-10-08T07:58:32;12.90;97.10
64209;DHT22;50527;52.414;13.226;2023-10-08T08:01:03;13.00;95.30
64209;DHT22;50527;52.414;13.226;2023-10-08T08:03:35;12.90;94.40
64209;DHT22;50527;52.414;13.226;2023-10-08T08:06:07;12.90;94.80
64209;DHT22;50527;52.414;13.226;2023-10-08T08:08:34;12.90;96.00
64209;DHT22;50527;52.414;13.226;2023-10-08T08:11:07;13.00;96.20
64209;DHT22;50527;52.414;13.226;2023-10-08T08:13:38;12.80;96.10
64209;DHT22;50527;52.414;13.226;2023-10-08T08:16:04;13.00;97.20
64209;DHT22;50527;52.414;13.226;2023-10-08T08:18:51;13.00;96.60
64209;DHT22;50527;52.414;13.226;2023-10-08T08:21:19;13.00;96.30
64209;DHT22;50527;52.414;13.226;2023-10-08T08:23:48;13.00;97.00
64209;DHT22;50527;52.414;13.226;2023-10-08T08:26:23;13.00;97.30
64209;DHT22;50527;52.414;13.226;2023-10-08T08:29:02;13.10;97.00
64209;DHT22;50527;52.414;13.226;2023-10-08T08:31:28;13.70;95.20
64209;DHT22;50527;52.414;13.226;2023-10-08T08:34:00;13.80;92.90
64209;DHT22;50527;52.414;13.226;2023-10-08T08:36:29;13.70;93.90
64209;DHT22;50527;52.414;13.226;2023-10-08T08:38:55;13.80;93.10
64209;DHT22;50527;52.414;13.226;2023-10-08T08:41:21;14.00;93.20
64209;DHT22;50527;52.414;13.226;2023-10-08T08:43:50;13.80;93.80
64209;DHT22;50527;52.414;13.226;2023-10-08T08:48:54;13.80;94.40
64209;DHT22;50527;52.414;13.226;2023-10-08T08:51:21;13.70;94.20
64209;DHT22;50527;52.414;13.226;2023-10-08T08:53:48;13.70;93.50
64209;DHT22;50527;52.414;13.226;2023-10-08T08:56:18;13.70;93.10
64209;DHT22;50527;52.414;13.226;2023-10-08T08:58:44;13.60;93.70
64209;DHT22;50527;52.414;13.226;2023-10-08T09:01:12;14.20;92.80
64209;DHT22;50527;52.414;13.226;2023-10-08T09:03:39;14.30;92.00
64209;DHT22;50527;52.414;13.226;2023-10-08T09:06:05;14.40;92.30
64209;DHT22;50527;52.414;13.226;2023-10-08T09:08:37;14.40;92.40
64209;DHT22;50527;52.414;13.226;2023-10-08T09:11:07;14.30;90.90
64209;DHT22;50527;52.414;13.226;2023-10-08T09:13:34;14.20;90.30
64209;DHT22;50527;52.414;13.226;2023-10-08T09:16:07;14.20;91.60
64209;DHT22;50527;52.414;13.226;2023-10-08T09:18:33;14.40;85.60
64209;DHT22;50527;52.414;13.226;2023-10-08T09:21:10;14.50;87.20
64209;DHT22;50527;52.414;13.226;2023-10-08T09:23:43;14.70;91.00
64209;DHT22;50527;52.414;13.226;2023-10-08T09:26:12;14.70;90.20
64209;DHT22;50527;52.414;13.226;2023-10-08T09:28:40;15.00;76.90
64209;DHT22;50527;52.414;13.226;2023-10-08T09:31:12;15.30;77.70
64209;DHT22;50527;52.414;13.226;2023-10-08T09:33:38;16.40;77.10
64209;DHT22;50527;52.414;13.226;2023-10-08T09:36:04;18.10;68.00
64209;DHT22;50527;52.414;13.226;2023-10-08T09:38:30;19.40;65.20
64209;DHT22;50527;52.414;13.226;2023-10-08T09:40:58;19.60;66.10
64209;DHT22;50527;52.414;13.226;2023-10-08T09:43:24;19.10;64.40
64209;DHT22;50527;52.414;13.226;2023-10-08T09:45:55;18.90;64.20
64209;DHT22;50527;52.414;13.226;2023-10-08T09:48:25;18.30;59.80
64209;DHT22;50527;52.414;13.226;2023-10-08T09:50:52;17.40;67.60
64209;DHT22;50527;52.414;13.226;2023-10-08T09:53:26;17.00;70.00
64209;DHT22;50527;52.414;13.226;2023-10-08T09:55:55;16.60;69.10
64209;DHT22;50527;52.414;13.226;2023-10-08T09:58:22;16.40;63.70
64209;DHT22;50527;52.414;13.226;2023-10-08T10:00:50;15.90;68.90
64209;DHT22;50527;52.414;13.226;2023-10-08T10:03:18;15.70;74.90
64209;DHT22;50527;52.414;13.226;2023-10-08T10:05:44;15.40;73.20
64209;DHT22;50527;52.414;13.226;2023-10-08T10:08:10;15.20;67.50
64209;DHT22;50527;52.414;13.226;2023-10-08T10:10:37;15.00;74.10
64209;DHT22;50527;52.414;13.226;2023-10-08T10:13:12;15.00;73.00
64209;DHT22;50527;52.414;13.226;2023-10-08T10:15:38;15.10;73.50
64209;DHT22;50527;52.414;13.226;2023-10-08T10:20:45;15.10;69.00
64209;DHT22;50527;52.414;13.226;2023-10-08T10:26:03;15.00;73.50
64209;DHT22;50527;52.414;13.226;2023-10-08T10:28:29;15.00;76.60
64209;DHT22;50527;52.414;13.226;2023-10-08T10:30:55;15.10;76.30
64209;DHT22;50527;52.414;13.226;2023-10-08T10:33:30;15.20;72.90
64209;DHT22;50527;52.414;13.226;2023-10-08T10:35:55;15.40;70.40
64209;DHT22;50527;52.414;13.226;2023-10-08T10:38:21;15.60;60.00
64209;DHT22;50527;52.414;13.226;2023-10-08T10:40:51;15.70;62.90
64209;DHT22;50527;52.414;13.226;2023-10-08T10:43:27;15.90;58.60
64209;DHT22;50527;52.414;13.226;2023-10-08T10:45:59;16.00;60.40
64209;DHT22;50527;52.414;13.226;2023-10-08T10:48:25;16.20;55.00
64209;DHT22;50527;52.414;13.226;2023-10-08T10:50:59;16.30;57.50
64209;DHT22;50527;52.414;13.226;2023-10-08T10:53:38;16.50;52.30
64209;DHT22;50527;52.414;13.226;2023-10-08T10:56:14;16.40;53.10
64209;DHT22;50527;52.414;13.226;2023-10-08T10:58:46;16.50;56.20
64209;DHT22;50527;52.414;13.226;2023-10-08T11:01:13;16.70;55.40
64209;DHT22;50527;52.414;13.226;2023-10-08T11:04:01;16.70;60.10
64209;DHT22;50527;52.414;13.226;2023-10-08T11:06:30;16.80;55.30
64209;DHT22;50527;52.414;13.226;2023-10-08T11:08:58;16.90;52.30
64209;DHT22;50527;52.414;13.226;2023-10-08T11:11:28;17.00;53.40
64209;DHT22;50527;52.414;13.226;2023-10-08T11:14:00;17.00;51.40
64209;DHT22;50527;52.414;13.226;2023-10-08T11:16:26;17.00;54.20
64209;DHT22;50527;52.414;13.226;2023-10-08T11:18:53;17.00;50.20
64209;DHT22;50527;52.414;13.226;2023-10-08T11:21:23;17.00;50.50
64209;DHT22;50527;52.414;13.226;2023-10-08T11:23:51;16.90;49.30
64209;DHT22;50527;52.414;13.226;2023-10-08T11:26:25;16.80;50.50
64209;DHT22;50527;52.414;13.226;2023-10-08T11:29:01;16.80;52.10
64209;DHT22;50527;52.414;13.226;2023-10-08T11:31:28;16.80;50.80
64209;DHT22;50527;52.414;13.226;2023-10-08T11:33:59;16.50;51.80
64209;DHT22;50527;52.414;13.226;2023-10-08T11:36:27;16.60;50.40
64209;DHT22;50527;52.414;13.226;2023-10-08T11:38:57;16.50;53.60
64209;DHT22;50527;52.414;13.226;2023-10-08T11:41:32;16.30;48.80
64209;DHT22;50527;52.414;13.226;2023-10-08T11:44:09;16.20;51.80
64209;DHT22;50527;52.414;13.226;2023-10-08T11:46:38;16.40;53.40
64209;DHT22;50527;52.414;13.226;2023-10-08T11:49:08;16.50;52.00
64209;DHT22;50527;52.414;13.226;2023-10-08T11:51:43;16.60;50.70
64209;DHT22;50527;52.414;13.226;2023-10-08T11:54:08;16.80;49.20
64209;DHT22;50527;52.414;13.226;2023-10-08T11:56:37;16.90;49.10
64209;DHT22;50527;52.414;13.226;2023-10-08T11:59:04;16.90;49.90
64209;DHT22;50527;52.414;13.226;2023-10-08T12:01:37;16.90;48.70
64209;DHT22;50527;52.414;13.226;2023-10-08T12:04:04;16.90;51.60
64209;DHT22;50527;52.414;13.226;2023-10-08T12:06:29;17.00;48.50
64209;DHT22;50527;52.414;13.226;2023-10-08T12:08:59;16.90;49.40
64209;DHT22;50527;52.414;13.226;2023-10-08T12:11:25;16.90;48.90
64209;DHT22;50527;52.414;13.226;2023-10-08T12:13:57;16.90;47.40
64209;DHT22;50527;52.414;13.226;2023-10-08T12:16:25;16.80;47.90
64209;DHT22;50527;52.414;13.226;2023-10-08T12:18:55;16.70;48.30
64209;DHT22;50527;52.414;13.226;2023-10-08T12:21:41;16.70;47.90
64209;DHT22;50527;52.414;13.226;2023-10-08T12:24:06;16.60;48.70
64209;DHT22;50527;52.414;13.226;2023-10-08T12:26:36;16.80;50.60
64209;DHT22;50527;52.414;13.226;2023-10-08T12:29:01;16.90;49.30
64209;DHT22;50527;52.414;13.226;2023-10-08T12:31:27;16.90;47.20
64209;DHT22;50527;52.414;13.226;2023-10-08T12:33:55;16.90;46.90
64209;DHT22;50527;52.414;13.226;2023-10-08T12:36:26;16.70;51.10
64209;DHT22;50527;52.414;13.226;2023-10-08T12:38:53;16.70;48.30
64209;DHT22;50527;52.414;13.226;2023-10-08T12:41:27;16.50;48.40
64209;DHT22;50527;52.414;13.226;2023-10-08T12:43:53;16.50;49.90
64209;DHT22;50527;52.414;13.226;2023-10-08T12:46:22;16.50;48.70
64209;DHT22;50527;52.414;13.226;2023-10-08T12:48:52;16.70;48.30
64209;DHT22;50527;52.414;13.226;2023-10-08T12:51:22;16.60;47.00
64209;DHT22;50527;52.414;13.226;2023-10-08T12:53:51;16.50;47.60
64209;DHT22;50527;52.414;13.226;2023-10-08T12:56:25;16.50;47.60
64209;DHT22;50527;52.414;13.226;2023-10-08T12:58:57;16.60;49.30
64209;DHT22;50527;52.414;13.226;2023-10-08T13:01:23;16.60;50.00
64209;DHT22;50527;52.414;13.226;2023-10-08T13:03:49;16.40;50.50
64209;DHT22;50527;52.414;13.226;2023-10-08T13:06:18;16.10;50.90
64209;DHT22;50527;52.414;13.226;2023-10-08T13:08:51;15.80;53.40
64209;DHT22;50527;52.414;13.226;2023-10-08T13:11:22;15.80;57.10
64209;DHT22;50527;52.414;13.226;2023-10-08T13:13:54;15.80;56.00
64209;DHT22;50527;52.414;13.226;2023-10-08T13:16:24;15.80;53.60
64209;DHT22;50527;52.414;13.226;2023-10-08T13:18:51;16.00;54.10
64209;DHT22;50527;52.414;13.226;2023-10-08T13:21:17;16.20;50.00
64209;DHT22;50527;52.414;13.226;2023-10-08T13:23:47;16.20;50.80
64209;DHT22;50527;52.414;13.226;2023-10-08T13:26:14;16.30;51.40
64209;DHT22;50527;52.414;13.226;2023-10-08T13:28:45;16.30;50.90
64209;DHT22;50527;52.414;13.226;2023-10-08T13:31:11;16.40;49.90
64209;DHT22;50527;52.414;13.226;2023-10-08T13:33:38;16.30;48.30
64209;DHT22;50527;52.414;13.226;2023-10-08T13:36:10;16.30;49.60
64209;DHT22;50527;52.414;13.226;2023-10-08T13:38:38;16.20;48.70
64209;DHT22;50527;52.414;13.226;2023-10-08T13:41:06;16.30;49.20
64209;DHT22;50527;52.414;13.226;2023-10-08T13:43:40;16.20;50.60
64209;DHT22;50527;52.414;13.226;2023-10-08T13:46:07;16.20;49.30
64209;DHT22;50527;52.414;13.226;2023-10-08T13:48:38;16.10;53.30
64209;DHT22;50527;52.414;13.226;2023-10-08T13:51:05;16.20;52.50
64209;DHT22;50527;52.414;13.226;2023-10-08T13:53:31;16.20;51.40
64209;DHT22;50527;52.414;13.226;2023-10-08T13:56:01;16.10;50.00
64209;DHT22;50527;52.414;13.226;2023-10-08T13:58:33;15.90;54.70
64209;DHT22;50527;52.414;13.226;2023-10-08T14:01:06;15.90;50.60
64209;DHT22;50527;52.414;13.226;2023-10-08T14:03:45;15.80;50.20
64209;DHT22;50527;52.414;13.226;2023-10-08T14:06:10;15.80;52.70
64209;DHT22;50527;52.414;13.226;2023-10-08T14:08:36;15.80;54.40
64209;DHT22;50527;52.414;13.226;2023-10-08T14:11:01;15.70;50.60
64209;DHT22;50527;52.414;13.226;2023-10-08T14:13:31;15.80;52.00
64209;DHT22;50527;52.414;13.226;2023-10-08T14:16:01;15.90;53.60
64209;DHT22;50527;52.414;13.226;2023-10-08T14:18:33;16.00;51.70
64209;DHT22;50527;52.414;13.226;2023-10-08T14:21:07;15.90;54.90
64209;DHT22;50527;52.414;13.226;2023-10-08T14:23:38;15.90;54.10
64209;DHT22;50527;52.414;13.226;2023-10-08T14:26:08;16.00;54.40
64209;DHT22;50527;52.414;13.226;2023-10-08T14:28:35;15.90;54.20
64209;DHT22;50527;52.414;13.226;2023-10-08T14:31:10;15.90;53.10
64209;DHT22;50527;52.414;13.226;2023-10-08T14:33:41;15.90;54.60
64209;DHT22;50527;52.414;13.226;2023-10-08T14:36:09;15.90;54.70
64209;DHT22;50527;52.414;13.226;2023-10-08T14:38:53;15.90;57.60
64209;DHT22;50527;52.414;13.226;2023-10-08T14:41:37;15.90;54.70
64209;DHT22;50527;52.414;13.226;2023-10-08T14:44:21;15.70;55.10
64209;DHT22;50527;52.414;13.226;2023-10-08T14:46:49;15.70;56.20
64209;DHT22;50527;52.414;13.226;2023-10-08T14:49:16;15.80;51.90
64209;DHT22;50527;52.414;13.226;2023-10-08T14:51:42;15.80;56.30
64209;DHT22;50527;52.414;13.226;2023-10-08T14:54:09;15.70;55.80
64209;DHT22;50527;52.414;13.226;2023-10-08T14:56:35;15.80;52.80
64209;DHT22;50527;52.414;13.226;2023-10-08T14:59:02;15.70;55.60
64209;DHT22;50527;52.414;13.226;2023-10-08T15:01:28;15.70;55.40
64209;DHT22;50527;52.414;13.226;2023-10-08T15:03:57;15.60;57.40
64209;DHT22;50527;52.414;13.226;2023-10-08T15:06:26;15.60;60.30
64209;DHT22;50527;52.414;13.226;2023-10-08T15:08:51;15.50;60.10
64209;DHT22;50527;52.414;13.226;2023-10-08T15:11:17;15.50;57.60
64209;DHT22;50527;52.414;13.226;2023-10-08T15:13:43;15.50;56.50
64209;DHT22;50527;52.414;13.226;2023-10-08T15:16:20;15.40;57.80
64209;DHT22;50527;52.414;13.226;2023-10-08T15:18:58;15.40;58.40
64209;DHT22;50527;52.414;13.226;2023-10-08T15:21:29;15.30;56.40
64209;DHT22;50527;52.414;13.226;2023-10-08T15:23:58;15.20;58.60
64209;DHT22;50527;52.414;13.226;2023-10-08T15:26:32;15.10;61.70
64209;DHT22;50527;52.414;13.226;2023-10-08T15:28:58;15.10;62.40
64209;DHT22;50527;52.414;13.226;2023-10-08T15:31:31;15.00;63.50
64209;DHT22;50527;52.414;13.226;2023-10-08T15:34:06;14.80;64.30
64209;DHT22;50527;52.414;13.226;2023-10-08T15:36:32;14.80;68.50
64209;DHT22;50527;52.414;13.226;2023-10-08T15:38:58;14.80;68.40
64209;DHT22;50527;52.414;13.226;2023-10-08T15:41:27;14.60;67.00
64209;DHT22;50527;52.414;13.226;2023-10-08T15:43:53;14.50;68.20
64209;DHT22;50527;52.414;13.226;2023-10-08T15:46:25;14.40;70.10
64209;DHT22;50527;52.414;13.226;2023-10-08T15:48:54;14.40;71.80